• Join FlightAware (Why Join?)
  • Login
  • US Flag 
05:50PM EDT


 

Airport Tracker/Info


-or-


 

Live Flight TrackerFlight Track Log ✈ SWA3943 ✈ 18-Apr-2013 ✈ KCMH - KBWI

Flight Track Log - Related Links

Times and Time Zones

All times are in EDT time to prevent confusion due to time zone crossing. See the SWA3943 flight status page for this flight to view local times or setup timezone preferences in your user account.

Time Position Orientation Groundspeed Altitude Reporting Facility
EDT Latitude Longitude Course Direction KTS MPH feet Rate Location/Type
08:45PM 40.0039 -82.9831 281° West 196 226 3,900  Level Indianapolis Center
08:46PM 40.0092 -83.0281 279° West 230 265 5,700 2,700 Climbing Indianapolis Center
08:46PM 39.9853 -83.0450 209° Southwest 219 252 6,700 2,340 Climbing Indianapolis Center
08:47PM 39.9239 -82.9981 150° Southeast 279 321 9,500 2,640 Climbing Indianapolis Center
08:49PM 39.9233 -82.8722 90° East 345 397 12,200 2,640 Climbing Indianapolis Center
08:50PM 39.9306 -82.7425 86° East 357 411 15,000 2,520 Climbing Indianapolis Center
08:51PM 39.9381 -82.6025 86° East 382 440 17,500 2,640 Climbing Indianapolis Center
08:52PM 39.9467 -82.4314 86° East 399 459 20,500 2,640 Climbing Indianapolis Center
08:53PM 39.9542 -82.2808 86° East 409 471 22,900 2,040 Climbing Indianapolis Center
08:54PM 39.9619 -82.1264 86° East 423 487 24,800 1,980 Climbing Indianapolis Center
08:55PM 39.9692 -81.9700 87° East 428 493 27,000 1,080 Climbing Indianapolis Center
08:56PM 39.9764 -81.8108 87° East 434 499 27,000  Level Indianapolis Center
08:57PM 39.9689 -81.6444 93° East 447 514 27,000  Level Indianapolis Center
08:58PM 39.9517 -81.4842 98° East 451 519 27,000  Level Indianapolis Center
08:59PM 39.9342 -81.3256 98° East 455 524 27,000  Level Indianapolis Center
09:00PM 39.9156 -81.1631 98° East 453 521 27,000  Level Indianapolis Center
09:01PM 39.8972 -80.9978 98° East 458 527 27,000  Level Indianapolis Center
09:02PM 39.8786 -80.8369 99° East 450 518 27,000  Level Indianapolis Center
09:03PM 39.8597 -80.6756 99° East 449 517 27,000  Level Indianapolis Center
09:04PM 39.8400 -80.4967 98° East 447 514 27,000  Level Cleveland Center
09:05PM 39.8231 -80.3372 98° East 447 514 27,000  Level Cleveland Center
09:06PM 39.8017 -80.1806 100° East 447 514 27,000 -600 Level Cleveland Center
09:08PM 39.7711 -79.9275 99° East 445 512 25,400 -780 Descending Washington Center
09:09PM 39.7517 -79.7722 99° East 439 505 25,000 -240 Descending Washington Center
09:10PM 39.7339 -79.6228 99° East 427 491 25,000  Level Washington Center
09:11PM 39.7136 -79.4761 100° East 417 480 25,000  Level Washington Center
09:12PM 39.6956 -79.3267 99° East 412 474 25,000  Level Washington Center
09:13PM 39.6750 -79.1772 100° East 412 474 25,000  Level Washington Center
09:14PM 39.6522 -79.0281 101° East 412 474 25,000  Level Washington Center
09:15PM 39.6128 -78.8697 108° East 412 474 25,000 -540 Level Washington Center
09:16PM 39.5814 -78.7256 106° East 418 481 24,000 -1,500 Descending Washington Center
09:17PM 39.5514 -78.5872 106° East 413 475 22,100 -2,100 Descending Washington Center
09:18PM 39.5214 -78.4514 106° East 402 463 19,900 -2,160 Descending Washington Center
09:19PM 39.4911 -78.3211 107° East 384 442 17,800 -2,100 Descending Washington Center
09:20PM 39.4625 -78.1964 107° East 372 428 15,800 -1,920 Descending Washington Center
09:21PM 39.4528 -78.0669 96° East 360 414 14,000 -1,380 Descending Washington Center
09:22PM 39.4511 -77.9378 91° East 355 409 13,100 -1,020 Descending Washington Center
09:23PM 39.4494 -77.8061 91° East 355 409 12,000 -900 Descending Washington Center
09:24PM 39.4497 -77.6797 90° East 355 409 11,400 -540 Descending Washington Center
09:25PM 39.4456 -77.5506 92° East 355 409 11,000 -240 Descending Washington Center
09:26PM 39.4456 -77.4217 90° East 355 409 11,000  Level Washington Center
09:27PM 39.4517 -77.2956 86° East 349 402 11,000  Level Washington Center
09:27PM 39.4667 -77.2500 67° East 349 402 11,000 -420 Level Potomac TRACON
09:28PM 39.4667 -77.1333 90° East 345 397 10,500 -900 Descending Potomac TRACON
09:29PM 39.4333 -77.0500 117° Southeast 284 327 9,300 -1,440 Descending Potomac TRACON
09:30PM 39.3667 -77.0167 159° South 260 299 7,700 -1,680 Descending Potomac TRACON
09:31PM 39.3000 -76.9833 159° South 259 298 6,000 -1,020 Descending Potomac TRACON
09:32PM 39.2500 -76.9167 134° Southeast 226 260 5,700 -900 Descending Potomac TRACON
09:33PM 39.2333 -76.8500 108° East 201 231 4,200 -1,380 Descending Potomac TRACON
09:34PM 39.1833 -76.8167 153° Southeast 153 176 3,000 -1,200 Descending Potomac TRACON
09:35PM 39.1833 -76.7833 90° East 132 152 1,800 -1,140 Descending Potomac TRACON
09:36PM 39.1833 -76.7333 90° East 131 151 800 -1,020 Descending Potomac TRACON
09:38PM 39.1667 -76.6667 142° Southeast  Level FlightAware Approximate
09:45PM 39.1754 -76.6683 142° Southeast  Level Estimated
09:46PM 39.1754 -76.6683 142° Southeast  Level Estimated
09:47PM 39.1754 -76.6683 142° Southeast  Level Estimated